Time;durP1;ratioP1;P1;durP2;ratioP2;P2;SDS_P1;SDS_P2;PMS_P1;PMS_P2;Temp;Humidity;BMP_temperature;BMP_pressure;BME280_temperature;BME280_humidity;BME280_pressure;Samples;Min_cycle;Max_cycle;Signal;HPM_P1;HPM_P2
2022/04/05 00:01:40;;;;;;;41.45;9.15;;;;;;;;;;5002515;28;20487;-42
2022/04/05 00:04:08;;;;;;;53.45;9.52;;;;;;;;;;5002690;28;20038;-42
2022/04/05 00:06:35;;;;;;;52.67;9.65;;;;;;;;;;5012847;28;20038;-42
2022/04/05 00:09:02;;;;;;;37.55;8.68;;;;;;;;;;5001103;28;20037;-43
2022/04/05 00:11:29;;;;;;;48.38;9.15;;;;;;;;;;4994954;28;20599;-42
2022/04/05 00:13:56;;;;;;;53.28;10.38;;;;;;;;;;4994776;28;20114;-43
2022/04/05 00:16:23;;;;;;;61.83;11.65;;;;;;;;;;4994808;28;20018;-43
2022/04/05 00:18:50;;;;;;;96.50;19.33;;;;;;;;;;5004170;28;20357;-42
2022/04/05 00:21:17;;;;;;;124.90;26.02;;;;;;;;;;5002105;28;20077;-42
2022/04/05 00:23:44;;;;;;;164.60;36.55;;;;;;;;;;4999448;28;20472;-41
2022/04/05 00:26:11;;;;;;;187.05;45.40;;;;;;;;;;4997055;28;20390;-42
2022/04/05 00:28:38;;;;;;;214.60;50.65;;;;;;;;;;4995023;28;20034;-42
2022/04/05 00:31:06;;;;;;;185.80;48.22;;;;;;;;;;4994929;28;20050;-42
2022/04/05 00:33:33;;;;;;;205.32;50.80;;;;;;;;;;4995214;28;20038;-41
2022/04/05 00:36:00;;;;;;;172.88;47.58;;;;;;;;;;4994984;28;20023;-41
2022/04/05 00:38:27;;;;;;;177.07;46.83;;;;;;;;;;4994845;28;20026;-41
2022/04/05 00:40:54;;;;;;;170.60;47.00;;;;;;;;;;4994895;28;20034;-41
2022/04/05 00:43:21;;;;;;;154.35;44.05;;;;;;;;;;4995135;28;20488;-42
2022/04/05 00:45:48;;;;;;;152.18;42.42;;;;;;;;;;4994528;28;20088;-42
2022/04/05 00:48:23;;;;;;;150.85;40.70;;;;;;;;;;4994647;28;20092;-42
2022/04/05 00:50:50;;;;;;;134.50;38.05;;;;;;;;;;4977511;28;20436;-42
2022/04/05 00:53:17;;;;;;;141.50;37.10;;;;;;;;;;4994451;28;20060;-42
2022/04/05 00:55:44;;;;;;;143.10;35.08;;;;;;;;;;4998327;28;20026;-41
2022/04/05 00:58:14;;;;;;;142.25;35.85;;;;;;;;;;5005549;28;20037;-41
2022/04/05 01:00:41;;;;;;;123.60;33.75;;;;;;;;;;5014018;28;20109;-42
2022/04/05 01:03:08;;;;;;;126.90;33.38;;;;;;;;;;5013982;28;20025;-42
2022/04/05 01:05:35;;;;;;;129.68;32.80;;;;;;;;;;5011321;28;20036;-41
2022/04/05 01:08:03;;;;;;;119.05;31.48;;;;;;;;;;4999565;28;20049;-39
2022/04/05 01:10:30;;;;;;;114.50;31.92;;;;;;;;;;4994757;28;20030;-41
2022/04/05 01:12:57;;;;;;;114.82;30.10;;;;;;;;;;4994722;28;20027;-41
2022/04/05 01:15:24;;;;;;;118.20;31.85;;;;;;;;;;4977098;28;20042;-41
2022/04/05 01:17:54;;;;;;;107.10;28.58;;;;;;;;;;4994550;28;20034;-41
2022/04/05 01:20:21;;;;;;;113.93;29.27;;;;;;;;;;4999466;28;20105;-41
2022/04/05 01:22:51;;;;;;;115.57;30.75;;;;;;;;;;4999783;28;20030;-42
2022/04/05 01:25:19;;;;;;;107.57;29.65;;;;;;;;;;4994314;28;20033;-42
2022/04/05 01:27:46;;;;;;;98.55;27.70;;;;;;;;;;4994302;28;20038;-42
2022/04/05 01:30:14;;;;;;;106.18;28.08;;;;;;;;;;4994142;28;20105;-42
2022/04/05 01:32:41;;;;;;;102.03;27.98;;;;;;;;;;4994392;28;20034;-43
2022/04/05 01:35:10;;;;;;;97.95;27.65;;;;;;;;;;4994291;28;20030;-42
2022/04/05 01:37:37;;;;;;;94.63;27.25;;;;;;;;;;4994186;28;20057;-41
2022/04/05 01:40:05;;;;;;;97.97;26.60;;;;;;;;;;5013441;28;20112;-41
2022/04/05 01:42:33;;;;;;;82.70;24.77;;;;;;;;;;5013627;28;20446;-41
2022/04/05 01:45:01;;;;;;;86.35;24.95;;;;;;;;;;5013786;28;20392;-41
2022/04/05 01:47:28;;;;;;;91.80;25.42;;;;;;;;;;5013662;28;20109;-41
2022/04/05 01:49:55;;;;;;;85.75;24.95;;;;;;;;;;5013967;28;20033;-41
2022/04/05 01:52:22;;;;;;;89.57;24.35;;;;;;;;;;5013963;28;20018;-41
2022/04/05 01:54:49;;;;;;;78.25;24.27;;;;;;;;;;5013840;28;20388;-41
2022/04/05 01:57:16;;;;;;;91.63;24.33;;;;;;;;;;5013611;28;20060;-41
2022/04/05 01:59:44;;;;;;;86.60;23.15;;;;;;;;;;4996101;28;20408;-41
2022/04/05 02:02:11;;;;;;;76.03;22.65;;;;;;;;;;5013685;28;20064;-41
2022/04/05 02:04:39;;;;;;;84.05;22.52;;;;;;;;;;5013725;28;20030;-41
2022/04/05 02:07:23;;;;;;;81.28;22.65;;;;;;;;;;5013529;28;20029;-41
2022/04/05 02:09:52;;;;;;;72.85;21.00;;;;;;;;;;5013658;28;20026;-41
2022/04/05 02:12:19;;;;;;;75.88;19.70;;;;;;;;;;5013610;28;20054;-41
2022/04/05 02:14:46;;;;;;;81.13;21.30;;;;;;;;;;5013521;28;20041;-41
2022/04/05 02:17:13;;;;;;;65.32;21.02;;;;;;;;;;5013242;28;20044;-41
2022/04/05 02:19:41;;;;;;;68.88;18.92;;;;;;;;;;5013462;28;20087;-41
2022/04/05 02:22:08;;;;;;;65.57;19.58;;;;;;;;;;5013190;28;20036;-41
2022/04/05 02:24:35;;;;;;;68.57;20.35;;;;;;;;;;5013148;28;20037;-41
2022/04/05 02:27:02;;;;;;;62.88;18.95;;;;;;;;;;5013220;28;20041;-41
2022/04/05 02:29:30;;;;;;;67.60;18.92;;;;;;;;;;5012708;28;20105;-41
2022/04/05 02:31:57;;;;;;;57.55;17.65;;;;;;;;;;5013247;28;20065;-41
2022/04/05 02:34:23;;;;;;;63.60;18.27;;;;;;;;;;5013197;28;20209;-41
2022/04/05 02:36:51;;;;;;;59.47;17.60;;;;;;;;;;5013065;28;20041;-41
2022/04/05 02:39:17;;;;;;;55.88;17.15;;;;;;;;;;5013127;28;20105;-41
2022/04/05 02:41:45;;;;;;;60.75;18.05;;;;;;;;;;5013022;28;20030;-41
2022/04/05 02:44:12;;;;;;;57.40;17.33;;;;;;;;;;5013064;28;20025;-41
2022/04/05 02:46:39;;;;;;;54.03;17.27;;;;;;;;;;5012858;28;20028;-41
2022/04/05 02:49:06;;;;;;;52.67;15.93;;;;;;;;;;5012971;28;20399;-41
2022/04/05 02:51:33;;;;;;;52.42;15.88;;;;;;;;;;5012894;28;20088;-41
2022/04/05 02:54:00;;;;;;;52.63;15.60;;;;;;;;;;5012880;28;20060;-41
2022/04/05 02:56:27;;;;;;;49.10;14.73;;;;;;;;;;5012543;28;20096;-41
2022/04/05 02:58:54;;;;;;;46.63;15.27;;;;;;;;;;5012834;28;20054;-41
2022/04/05 03:01:21;;;;;;;54.67;13.55;;;;;;;;;;5012817;28;20022;-41
2022/04/05 03:03:48;;;;;;;46.35;13.65;;;;;;;;;;5012731;28;20029;-41
2022/04/05 03:06:16;;;;;;;47.75;14.48;;;;;;;;;;5012623;28;20061;-41
2022/04/05 03:08:44;;;;;;;42.42;13.70;;;;;;;;;;5012512;28;20042;-41
2022/04/05 03:11:11;;;;;;;50.22;14.63;;;;;;;;;;5012744;28;20049;-41
2022/04/05 03:13:39;;;;;;;41.90;12.88;;;;;;;;;;5012565;28;20070;-41
2022/04/05 03:16:06;;;;;;;41.45;12.82;;;;;;;;;;5012478;28;20030;-41
2022/04/05 03:18:33;;;;;;;50.05;15.07;;;;;;;;;;5012569;28;20111;-41
2022/04/05 03:21:00;;;;;;;45.83;13.13;;;;;;;;;;5012658;28;20030;-41
2022/04/05 03:23:27;;;;;;;42.28;12.98;;;;;;;;;;5012582;28;20038;-41
2022/04/05 03:25:54;;;;;;;36.75;12.15;;;;;;;;;;5012479;28;20091;-41
2022/04/05 03:28:21;;;;;;;37.28;12.60;;;;;;;;;;5012515;28;20471;-41
2022/04/05 03:30:48;;;;;;;39.38;12.73;;;;;;;;;;5012518;28;20038;-41
2022/04/05 03:33:16;;;;;;;37.95;11.63;;;;;;;;;;5012472;28;20029;-41
2022/04/05 03:35:43;;;;;;;36.13;11.73;;;;;;;;;;5012424;28;20213;-40
2022/04/05 03:38:10;;;;;;;39.10;11.23;;;;;;;;;;5012497;28;20056;-41
2022/04/05 03:40:38;;;;;;;40.88;12.40;;;;;;;;;;5012740;28;20026;-41
2022/04/05 03:43:07;;;;;;;41.80;12.10;;;;;;;;;;5016289;28;20056;-41
2022/04/05 03:45:34;;;;;;;35.90;11.57;;;;;;;;;;5016105;28;20814;-41
2022/04/05 03:48:01;;;;;;;33.30;11.15;;;;;;;;;;5016180;28;20105;-41
2022/04/05 03:50:28;;;;;;;31.35;11.05;;;;;;;;;;5016105;28;20120;-41
2022/04/05 03:52:57;;;;;;;35.65;11.02;;;;;;;;;;5016195;28;20022;-41
2022/04/05 03:55:24;;;;;;;39.90;10.57;;;;;;;;;;5015877;28;20080;-41
2022/04/05 03:57:51;;;;;;;36.45;11.13;;;;;;;;;;5015907;28;20500;-41
2022/04/05 04:00:18;;;;;;;31.88;10.40;;;;;;;;;;5015995;28;20068;-41
2022/04/05 04:02:45;;;;;;;32.95;9.80;;;;;;;;;;5016019;28;20018;-41
2022/04/05 04:05:17;;;;;;;34.33;10.63;;;;;;;;;;5015891;28;20022;-41
2022/04/05 04:07:45;;;;;;;32.63;9.88;;;;;;;;;;5015677;28;20045;-41
2022/04/05 04:10:12;;;;;;;31.98;10.55;;;;;;;;;;5015922;28;20040;-41
2022/04/05 04:12:39;;;;;;;29.25;9.63;;;;;;;;;;5015857;28;20561;-41
2022/04/05 04:15:07;;;;;;;32.38;9.45;;;;;;;;;;5015720;28;20030;-41
2022/04/05 04:17:34;;;;;;;22.45;8.35;;;;;;;;;;5015719;28;20045;-41
2022/04/05 04:20:01;;;;;;;27.77;9.30;;;;;;;;;;5015695;28;20468;-41
2022/04/05 04:22:28;;;;;;;27.02;8.55;;;;;;;;;;5015685;28;20034;-41
2022/04/05 04:24:57;;;;;;;27.63;8.52;;;;;;;;;;5015541;28;20030;-41
2022/04/05 04:27:25;;;;;;;26.40;9.27;;;;;;;;;;5015389;28;20045;-41
2022/04/05 04:29:53;;;;;;;25.00;8.13;;;;;;;;;;5015539;28;20030;-41
2022/04/05 04:32:20;;;;;;;30.33;9.40;;;;;;;;;;5015527;28;20033;-41
2022/04/05 04:34:47;;;;;;;25.42;8.57;;;;;;;;;;5015301;28;20479;-41
2022/04/05 04:37:14;;;;;;;26.67;8.75;;;;;;;;;;5015418;28;20062;-41
2022/04/05 04:39:41;;;;;;;24.13;8.27;;;;;;;;;;5015407;28;20033;-41
2022/04/05 04:42:08;;;;;;;21.70;7.85;;;;;;;;;;5015254;28;20026;-41
2022/04/05 04:44:35;;;;;;;28.98;8.45;;;;;;;;;;5015274;28;20114;-41
2022/04/05 04:47:02;;;;;;;21.20;7.93;;;;;;;;;;5015087;28;20025;-41
2022/04/05 04:49:30;;;;;;;21.98;7.38;;;;;;;;;;5015247;28;20084;-41
2022/04/05 04:51:57;;;;;;;25.20;7.78;;;;;;;;;;5014619;28;20635;-41
2022/04/05 04:54:24;;;;;;;23.02;7.63;;;;;;;;;;5015091;28;20049;-41
2022/04/05 04:56:51;;;;;;;23.65;8.02;;;;;;;;;;5014766;28;20566;-41
2022/04/05 04:59:18;;;;;;;20.40;7.07;;;;;;;;;;5015020;28;20080;-41
2022/04/05 05:01:45;;;;;;;22.75;7.63;;;;;;;;;;5014978;28;20054;-41
2022/04/05 05:04:12;;;;;;;25.50;7.28;;;;;;;;;;4997218;28;20460;-41
2022/04/05 05:06:39;;;;;;;24.70;8.07;;;;;;;;;;5014932;28;20383;-41
2022/04/05 05:09:06;;;;;;;18.38;6.75;;;;;;;;;;5014823;28;20096;-41
2022/04/05 05:11:33;;;;;;;21.40;7.00;;;;;;;;;;5014674;28;20033;-41
2022/04/05 05:14:00;;;;;;;23.38;7.82;;;;;;;;;;5014647;28;20034;-41
2022/04/05 05:16:27;;;;;;;21.95;6.97;;;;;;;;;;5014641;28;20483;-41
2022/04/05 05:18:54;;;;;;;18.95;6.63;;;;;;;;;;5014506;28;20435;-41
2022/04/05 05:21:23;;;;;;;20.15;7.32;;;;;;;;;;5014638;28;20041;-41
2022/04/05 05:23:50;;;;;;;19.42;6.65;;;;;;;;;;5014541;28;20087;-41
2022/04/05 05:26:17;;;;;;;17.15;5.95;;;;;;;;;;5014437;28;20061;-41
2022/04/05 05:28:44;;;;;;;18.08;6.25;;;;;;;;;;5014372;28;20040;-41
2022/04/05 05:31:11;;;;;;;15.80;6.22;;;;;;;;;;5014392;28;20025;-41
2022/04/05 05:33:38;;;;;;;16.70;6.25;;;;;;;;;;5014320;28;20026;-41
2022/04/05 05:36:05;;;;;;;18.20;6.18;;;;;;;;;;5014243;28;20022;-41
2022/04/05 05:38:32;;;;;;;14.65;6.40;;;;;;;;;;5014308;28;20036;-41
2022/04/05 05:40:59;;;;;;;18.25;5.97;;;;;;;;;;5014203;28;20041;-41
2022/04/05 05:43:26;;;;;;;17.52;6.78;;;;;;;;;;5014143;28;20475;-41
2022/04/05 05:45:53;;;;;;;19.48;6.20;;;;;;;;;;5014032;28;20038;-41
2022/04/05 05:48:20;;;;;;;16.00;5.28;;;;;;;;;;5013999;28;20025;-41
2022/04/05 05:50:49;;;;;;;14.05;5.70;;;;;;;;;;5014008;28;20038;-41
2022/04/05 05:53:16;;;;;;;13.63;5.40;;;;;;;;;;5013855;28;20523;-41
2022/04/05 05:55:44;;;;;;;16.30;5.50;;;;;;;;;;5013848;28;20056;-41
2022/04/05 05:58:12;;;;;;;14.57;5.60;;;;;;;;;;5013750;28;20057;-41
2022/04/05 06:00:38;;;;;;;15.20;5.78;;;;;;;;;;5013884;28;20030;-41
2022/04/05 06:03:06;;;;;;;15.48;5.30;;;;;;;;;;5013312;28;20033;-41
2022/04/05 06:05:33;;;;;;;13.57;5.20;;;;;;;;;;5013348;28;20388;-41
2022/04/05 06:08:00;;;;;;;15.63;5.65;;;;;;;;;;5013553;28;20037;-41
2022/04/05 06:10:27;;;;;;;14.20;5.30;;;;;;;;;;5013621;28;20060;-41
2022/04/05 06:12:57;;;;;;;13.07;4.75;;;;;;;;;;5013540;28;20037;-41
2022/04/05 06:15:25;;;;;;;14.07;5.25;;;;;;;;;;5013548;28;20036;-41
2022/04/05 06:17:52;;;;;;;13.90;5.38;;;;;;;;;;5013508;28;20033;-41
2022/04/05 06:20:20;;;;;;;13.18;4.93;;;;;;;;;;5013511;28;20049;-41
2022/04/05 06:22:48;;;;;;;18.85;5.85;;;;;;;;;;5013484;28;20030;-41
2022/04/05 06:25:17;;;;;;;12.07;4.68;;;;;;;;;;5013234;28;20030;-41
2022/04/05 06:27:44;;;;;;;13.02;5.25;;;;;;;;;;5013289;28;20049;-41
2022/04/05 06:30:11;;;;;;;14.35;4.75;;;;;;;;;;5013294;28;20030;-41
2022/04/05 06:32:38;;;;;;;12.27;5.07;;;;;;;;;;5171520;22;20064;-37
2022/04/05 06:35:07;;;;;;;13.90;5.13;;;;;;;;;;5033104;28;20036;-37
2022/04/05 06:37:36;;;;;;;14.13;4.93;;;;;;;;;;5032864;28;20398;-37
2022/04/05 06:40:04;;;;;;;9.68;4.78;;;;;;;;;;5032897;28;20116;-37
2022/04/05 06:42:31;;;;;;;15.32;5.10;;;;;;;;;;5032742;28;20530;-36
2022/04/05 06:44:58;;;;;;;12.52;4.93;;;;;;;;;;5032821;28;20052;-36
2022/04/05 06:47:25;;;;;;;12.18;4.78;;;;;;;;;;5032623;28;20030;-36
2022/04/05 06:49:52;;;;;;;11.15;4.45;;;;;;;;;;5032752;28;20030;-36
2022/04/05 06:52:19;;;;;;;10.32;4.43;;;;;;;;;;5032663;28;20030;-37
2022/04/05 06:54:46;;;;;;;11.25;4.28;;;;;;;;;;5032728;28;20033;-36
2022/04/05 06:57:13;;;;;;;12.15;4.22;;;;;;;;;;5032658;28;20025;-37
2022/04/05 06:59:40;;;;;;;12.45;3.90;;;;;;;;;;5013453;28;20083;-36
2022/04/05 07:02:09;;;;;;;10.73;4.03;;;;;;;;;;5032504;28;20025;-36
2022/04/05 07:04:36;;;;;;;12.60;4.50;;;;;;;;;;5032460;28;20030;-36
2022/04/05 07:07:03;;;;;;;12.43;4.25;;;;;;;;;;5032418;28;20033;-36
2022/04/05 07:09:30;;;;;;;12.20;4.40;;;;;;;;;;5032510;28;20063;-36
2022/04/05 07:11:57;;;;;;;11.73;4.53;;;;;;;;;;5032265;28;20101;-36
2022/04/05 07:14:24;;;;;;;14.02;3.92;;;;;;;;;;5032216;28;20029;-36
2022/04/05 07:16:51;;;;;;;10.52;4.07;;;;;;;;;;5032469;28;20104;-36
2022/04/05 07:19:18;;;;;;;11.07;3.88;;;;;;;;;;5032432;28;20033;-36
2022/04/05 07:21:45;;;;;;;10.95;3.85;;;;;;;;;;5032349;28;20022;-36
2022/04/05 07:24:12;;;;;;;10.77;3.78;;;;;;;;;;5032309;28;20026;-36
2022/04/05 07:26:39;;;;;;;11.63;4.00;;;;;;;;;;5032270;28;20026;-37
2022/04/05 07:29:06;;;;;;;9.10;3.75;;;;;;;;;;5032232;28;20038;-36
2022/04/05 07:31:33;;;;;;;9.05;3.40;;;;;;;;;;5032032;28;20048;-36
2022/04/05 07:34:01;;;;;;;10.40;3.90;;;;;;;;;;5014507;28;20033;-35
2022/04/05 07:36:28;;;;;;;9.60;3.33;;;;;;;;;;5032094;28;20037;-36
2022/04/05 07:38:55;;;;;;;10.68;3.45;;;;;;;;;;5032266;28;20116;-36
2022/04/05 07:41:22;;;;;;;11.57;3.88;;;;;;;;;;5032173;28;20030;-36
2022/04/05 07:43:49;;;;;;;10.43;3.70;;;;;;;;;;5032197;28;20079;-36
2022/04/05 07:46:16;;;;;;;8.55;3.40;;;;;;;;;;5032228;28;20053;-36
2022/04/05 07:48:46;;;;;;;10.55;3.78;;;;;;;;;;5031942;28;20111;-36
2022/04/05 07:51:14;;;;;;;8.65;3.47;;;;;;;;;;5031960;28;20049;-36
2022/04/05 07:53:41;;;;;;;12.43;3.80;;;;;;;;;;5031983;28;20108;-36
2022/04/05 07:56:12;;;;;;;7.70;3.35;;;;;;;;;;5032103;28;20026;-36
2022/04/05 07:58:40;;;;;;;7.57;3.10;;;;;;;;;;5031931;28;20498;-36
2022/04/05 08:01:09;;;;;;;9.85;3.13;;;;;;;;;;5031865;28;20033;-36
2022/04/05 08:03:36;;;;;;;9.38;3.33;;;;;;;;;;5031929;28;20044;-37
2022/04/05 08:06:03;;;;;;;9.07;3.60;;;;;;;;;;5031991;28;20021;-36
2022/04/05 08:08:30;;;;;;;8.75;3.25;;;;;;;;;;5031891;28;20034;-36
2022/04/05 08:10:58;;;;;;;6.43;2.80;;;;;;;;;;5031757;28;20037;-36
2022/04/05 08:13:28;;;;;;;7.55;3.35;;;;;;;;;;5031853;28;20450;-36
2022/04/05 08:15:55;;;;;;;10.18;3.17;;;;;;;;;;5031932;28;20026;-36
2022/04/05 08:18:22;;;;;;;7.82;3.28;;;;;;;;;;5031857;28;20034;-36
2022/04/05 08:20:49;;;;;;;8.98;3.58;;;;;;;;;;5031885;28;20021;-36
2022/04/05 08:23:16;;;;;;;7.68;2.97;;;;;;;;;;5031709;28;20760;-36
2022/04/05 08:25:43;;;;;;;8.65;3.10;;;;;;;;;;5031857;28;20018;-36
2022/04/05 08:28:10;;;;;;;7.38;3.15;;;;;;;;;;5034192;28;20395;-36
2022/04/05 08:30:38;;;;;;;6.40;3.00;;;;;;;;;;5035386;28;20030;-36
2022/04/05 08:33:05;;;;;;;7.68;2.90;;;;;;;;;;5035043;28;20041;-36
2022/04/05 08:35:32;;;;;;;8.18;3.03;;;;;;;;;;5035233;28;20132;-36
2022/04/05 08:37:59;;;;;;;7.45;3.10;;;;;;;;;;5035255;28;20026;-36
2022/04/05 08:40:26;;;;;;;7.35;3.40;;;;;;;;;;5035199;28;20495;-36
2022/04/05 08:42:54;;;;;;;10.10;3.13;;;;;;;;;;5035086;28;20053;-36
2022/04/05 08:45:21;;;;;;;7.47;2.80;;;;;;;;;;5035104;28;20495;-36
2022/04/05 08:47:53;;;;;;;7.65;2.90;;;;;;;;;;5034934;28;20395;-36
2022/04/05 08:50:21;;;;;;;8.23;3.13;;;;;;;;;;5035048;28;20104;-36
2022/04/05 08:52:49;;;;;;;9.05;2.90;;;;;;;;;;5034833;28;20017;-36
2022/04/05 08:55:17;;;;;;;6.80;2.97;;;;;;;;;;5034791;28;20386;-37
2022/04/05 08:57:45;;;;;;;7.47;3.28;;;;;;;;;;5034878;28;20029;-37
2022/04/05 09:00:13;;;;;;;7.07;3.22;;;;;;;;;;5034722;28;20442;-36
2022/04/05 09:02:40;;;;;;;6.78;2.60;;;;;;;;;;5034686;28;20025;-36
2022/04/05 09:05:07;;;;;;;8.38;3.00;;;;;;;;;;5034714;28;20028;-36
2022/04/05 09:07:40;;;;;;;5.28;2.42;;;;;;;;;;5034575;28;20033;-36
2022/04/05 09:10:12;;;;;;;8.50;3.22;;;;;;;;;;5034533;28;20103;-36
2022/04/05 09:12:44;;;;;;;7.57;2.53;;;;;;;;;;5034539;28;20034;-36
2022/04/05 09:15:20;;;;;;;6.13;2.70;;;;;;;;;;5034550;28;20383;-36
2022/04/05 09:17:47;;;;;;;6.25;2.67;;;;;;;;;;5034521;28;20025;-36
2022/04/05 09:20:15;;;;;;;6.32;2.95;;;;;;;;;;5034485;28;20041;-37
2022/04/05 09:22:43;;;;;;;5.47;2.63;;;;;;;;;;5016750;28;20025;-36
2022/04/05 09:25:14;;;;;;;6.15;2.63;;;;;;;;;;5034389;28;20544;-36
2022/04/05 09:27:44;;;;;;;7.40;2.70;;;;;;;;;;5034214;28;20029;-37
2022/04/05 09:30:14;;;;;;;8.82;2.70;;;;;;;;;;5034124;28;20033;-36
2022/04/05 09:32:47;;;;;;;8.27;3.13;;;;;;;;;;5005897;28;20038;-36
2022/04/05 09:35:15;;;;;;;7.47;2.67;;;;;;;;;;5013948;28;20490;-36
2022/04/05 09:37:42;;;;;;;6.07;2.70;;;;;;;;;;5011697;28;20021;-37
2022/04/05 09:40:15;;;;;;;7.03;2.42;;;;;;;;;;5016201;28;20049;-36
2022/04/05 09:43:02;;;;;;;11.50;2.60;;;;;;;;;;5033692;28;20075;-36
2022/04/05 09:45:45;;;;;;;14.98;2.92;;;;;;;;;;5031984;28;20037;-38
2022/04/05 09:48:12;;;;;;;8.68;2.63;;;;;;;;;;5015278;28;20026;-38
2022/04/05 09:50:59;;;;;;;10.93;2.60;;;;;;;;;;5023053;28;20368;-37
2022/04/05 09:53:30;;;;;;;23.67;3.40;;;;;;;;;;5032948;28;20113;-38
2022/04/05 09:56:04;;;;;;;31.77;4.15;;;;;;;;;;5033105;28;20092;-37
2022/04/05 09:58:32;;;;;;;25.33;3.85;;;;;;;;;;5033157;28;20025;-37
2022/04/05 10:01:07;;;;;;;20.75;3.55;;;;;;;;;;5032954;28;20025;-37
2022/04/05 10:03:44;;;;;;;21.50;3.55;;;;;;;;;;5032780;28;20037;-38
2022/04/05 10:06:11;;;;;;;18.05;3.08;;;;;;;;;;5033109;28;20025;-38
2022/04/05 10:08:39;;;;;;;15.57;3.65;;;;;;;;;;5032759;28;20087;-38
2022/04/05 10:11:06;;;;;;;18.38;3.28;;;;;;;;;;5032895;28;20057;-38
2022/04/05 10:13:33;;;;;;;16.05;3.22;;;;;;;;;;5032790;28;20032;-37
2022/04/05 10:16:01;;;;;;;25.00;3.42;;;;;;;;;;5032932;28;20060;-37
2022/04/05 10:18:33;;;;;;;19.10;3.80;;;;;;;;;;5032600;28;20424;-37
2022/04/05 10:21:01;;;;;;;15.80;3.75;;;;;;;;;;5032591;28;20053;-38
2022/04/05 10:23:29;;;;;;;22.23;3.88;;;;;;;;;;5032812;28;20045;-37
2022/04/05 10:25:57;;;;;;;26.42;4.85;;;;;;;;;;5032601;28;20466;-37
2022/04/05 10:28:27;;;;;;;29.58;4.63;;;;;;;;;;5032208;28;20041;-37
2022/04/05 10:31:18;;;;;;;20.95;3.78;;;;;;;;;;5032496;28;20399;-38
2022/04/05 10:34:04;;;;;;;26.27;3.80;;;;;;;;;;5032694;28;20183;-37
2022/04/05 10:36:32;;;;;;;25.42;4.80;;;;;;;;;;5015198;28;20033;-37
2022/04/05 10:39:18;;;;;;;25.50;4.38;;;;;;;;;;5032864;28;20041;-37
2022/04/05 10:42:05;;;;;;;29.13;3.92;;;;;;;;;;5032836;28;20029;-37
2022/04/05 10:44:32;;;;;;;24.75;4.13;;;;;;;;;;5032846;28;20025;-36
2022/04/05 10:47:01;;;;;;;25.42;4.45;;;;;;;;;;5032772;28;20041;-36
2022/04/05 10:49:42;;;;;;;29.02;4.43;;;;;;;;;;5032301;28;20123;-36
2022/04/05 10:52:32;;;;;;;25.67;4.10;;;;;;;;;;5032575;28;20414;-36
2022/04/05 10:55:04;;;;;;;22.33;4.15;;;;;;;;;;5032605;28;20032;-36
2022/04/05 10:57:32;;;;;;;27.87;4.13;;;;;;;;;;5032581;28;20411;-36
2022/04/05 11:00:05;;;;;;;26.45;3.50;;;;;;;;;;5032664;28;20022;-36
2022/04/05 11:02:43;;;;;;;22.83;3.95;;;;;;;;;;5032537;28;20440;-36
2022/04/05 11:05:19;;;;;;;24.05;4.35;;;;;;;;;;5031355;28;20026;-38
2022/04/05 11:07:52;;;;;;;22.45;4.72;;;;;;;;;;5012601;28;20037;-38
2022/04/05 11:10:20;;;;;;;30.77;4.47;;;;;;;;;;5012723;28;20030;-38
2022/04/05 11:12:47;;;;;;;43.75;4.75;;;;;;;;;;5012540;28;20022;-40
2022/04/05 11:15:15;;;;;;;80.68;6.60;;;;;;;;;;5012700;28;20022;-38
2022/04/05 11:17:43;;;;;;;46.30;4.78;;;;;;;;;;5012633;28;20025;-38
2022/04/05 11:20:11;;;;;;;40.42;5.18;;;;;;;;;;5012563;28;20068;-37
2022/04/05 11:22:39;;;;;;;46.10;5.35;;;;;;;;;;5012394;28;20033;-35
2022/04/05 11:25:07;;;;;;;79.50;7.00;;;;;;;;;;5012460;28;20042;-37
2022/04/05 11:27:46;;;;;;;54.35;5.85;;;;;;;;;;5012450;28;20026;-41
2022/04/05 11:30:22;;;;;;;56.60;6.32;;;;;;;;;;5012418;28;20485;-37
2022/04/05 11:33:17;;;;;;;48.17;4.82;;;;;;;;;;5012091;28;20060;-37
2022/04/05 11:35:48;;;;;;;116.80;9.57;;;;;;;;;;5012300;28;20072;-36
2022/04/05 11:38:18;;;;;;;286.25;19.35;;;;;;;;;;5012435;28;20038;-37
2022/04/05 11:40:52;;;;;;;632.92;40.97;;;;;;;;;;5012321;28;20036;-38
2022/04/05 11:43:28;;;;;;;312.40;27.95;;;;;;;;;;5012300;28;20040;-37
2022/04/05 11:45:59;;;;;;;180.27;20.05;;;;;;;;;;5012482;28;20061;-38
2022/04/05 11:48:27;;;;;;;130.05;14.43;;;;;;;;;;5012110;28;20435;-37
2022/04/05 11:50:55;;;;;;;112.57;12.95;;;;;;;;;;5012205;28;20034;-37
2022/04/05 11:53:24;;;;;;;107.80;13.82;;;;;;;;;;5012244;28;20514;-37
2022/04/05 11:56:07;;;;;;;127.05;14.07;;;;;;;;;;5012217;28;20478;-38
2022/04/05 11:58:35;;;;;;;112.80;13.20;;;;;;;;;;5011999;28;20084;-38
2022/04/05 12:01:06;;;;;;;113.28;14.43;;;;;;;;;;5012079;28;20052;-38
2022/04/05 12:03:42;;;;;;;102.03;13.10;;;;;;;;;;5015562;28;20034;-38
2022/04/05 12:06:09;;;;;;;77.28;11.30;;;;;;;;;;5015947;28;20030;-37
2022/04/05 12:08:36;;;;;;;91.75;12.55;;;;;;;;;;5015906;28;20114;-37
2022/04/05 12:11:05;;;;;;;102.18;12.82;;;;;;;;;;4998391;28;20500;-38
2022/04/05 12:13:35;;;;;;;89.93;13.30;;;;;;;;;;5015702;28;20033;-37
2022/04/05 12:16:04;;;;;;;95.13;10.75;;;;;;;;;;5015755;28;20026;-37
2022/04/05 12:18:31;;;;;;;89.35;9.65;;;;;;;;;;5015719;28;20033;-37
2022/04/05 12:20:59;;;;;;;68.82;7.75;;;;;;;;;;5015648;28;20033;-37
2022/04/05 12:23:30;;;;;;;59.90;6.30;;;;;;;;;;5015673;28;20029;-37
2022/04/05 12:26:07;;;;;;;63.60;6.45;;;;;;;;;;5015552;28;20025;-37
2022/04/05 12:28:34;;;;;;;71.72;7.75;;;;;;;;;;5015476;28;20399;-37
2022/04/05 12:31:09;;;;;;;64.05;6.00;;;;;;;;;;5015304;28;20095;-37
2022/04/05 12:33:37;;;;;;;57.35;6.07;;;;;;;;;;5015176;28;20050;-37
2022/04/05 12:36:05;;;;;;;58.05;5.80;;;;;;;;;;5015423;28;20026;-37
2022/04/05 12:38:33;;;;;;;45.58;4.80;;;;;;;;;;5015362;28;20095;-38
2022/04/05 12:41:02;;;;;;;389.42;22.75;;;;;;;;;;5015114;28;20034;-38
2022/04/05 12:43:29;;;;;;;340.98;23.85;;;;;;;;;;5014985;28;20585;-37
2022/04/05 12:45:57;;;;;;;212.10;14.40;;;;;;;;;;5015239;28;20022;-37
2022/04/05 12:48:24;;;;;;;140.05;13.25;;;;;;;;;;4997485;28;20048;-37
2022/04/05 12:50:52;;;;;;;80.53;7.03;;;;;;;;;;5015077;28;20030;-37
2022/04/05 12:53:31;;;;;;;60.75;6.13;;;;;;;;;;4997466;28;20037;-37
2022/04/05 12:56:08;;;;;;;48.40;5.43;;;;;;;;;;5014919;28;20038;-37
2022/04/05 12:58:35;;;;;;;53.80;4.80;;;;;;;;;;5015043;28;20163;-37
2022/04/05 13:01:02;;;;;;;56.00;6.03;;;;;;;;;;5014862;28;20554;-37
2022/04/05 13:03:32;;;;;;;51.72;5.47;;;;;;;;;;5014892;28;20403;-37
2022/04/05 13:08:45;;;;;;;80.50;6.03;;;;;;;;;;5014773;28;20510;-37
2022/04/05 13:11:25;;;;;;;58.25;5.75;;;;;;;;;;5014624;28;20029;-37
2022/04/05 13:14:14;;;;;;;47.17;4.93;;;;;;;;;;5014283;28;20029;-37
2022/04/05 13:16:42;;;;;;;57.60;5.13;;;;;;;;;;5014507;28;20114;-37
2022/04/05 13:19:11;;;;;;;43.67;4.05;;;;;;;;;;5014675;28;20395;-37
2022/04/05 13:21:56;;;;;;;41.30;5.45;;;;;;;;;;5014452;28;20164;-37
2022/04/05 13:24:24;;;;;;;41.65;3.95;;;;;;;;;;5014486;28;20022;-37
2022/04/05 13:26:52;;;;;;;33.92;3.15;;;;;;;;;;5014384;28;20484;-37
2022/04/05 13:29:21;;;;;;;34.08;3.10;;;;;;;;;;5014463;28;20113;-37
2022/04/05 13:31:51;;;;;;;32.50;3.28;;;;;;;;;;5014029;28;20050;-37
2022/04/05 13:34:22;;;;;;;29.15;3.33;;;;;;;;;;5014380;28;20033;-37
2022/04/05 13:36:50;;;;;;;37.80;4.28;;;;;;;;;;5014297;28;20029;-37
2022/04/05 13:39:17;;;;;;;32.10;3.40;;;;;;;;;;5014131;28;20038;-37
2022/04/05 13:41:45;;;;;;;36.63;3.60;;;;;;;;;;5013956;28;20029;-37
2022/04/05 13:44:13;;;;;;;28.23;3.63;;;;;;;;;;5012618;28;20472;-37
2022/04/05 13:46:41;;;;;;;25.10;3.63;;;;;;;;;;5012407;28;20376;-37
2022/04/05 13:49:09;;;;;;;26.58;3.47;;;;;;;;;;5013527;28;20503;-37
2022/04/05 13:51:37;;;;;;;18.52;2.75;;;;;;;;;;5013547;28;20042;-37
2022/04/05 13:54:05;;;;;;;23.17;2.85;;;;;;;;;;5012989;28;20050;-37
2022/04/05 13:56:36;;;;;;;18.83;3.20;;;;;;;;;;4995493;28;20030;-37
2022/04/05 13:59:04;;;;;;;41.97;3.67;;;;;;;;;;5013068;28;20022;-37
2022/04/05 14:01:31;;;;;;;22.33;2.90;;;;;;;;;;5012642;28;20042;-37
2022/04/05 14:03:58;;;;;;;29.08;3.70;;;;;;;;;;5013347;28;20061;-36
2022/04/05 14:06:25;;;;;;;25.30;2.40;;;;;;;;;;5012906;28;20044;-36
2022/04/05 14:08:52;;;;;;;18.75;2.20;;;;;;;;;;5012739;28;20030;-36
2022/04/05 14:11:19;;;;;;;19.67;2.35;;;;;;;;;;5013142;28;20547;-36
2022/04/05 14:13:48;;;;;;;138.85;13.57;;;;;;;;;;5012788;28;20442;-37
2022/04/05 14:16:16;;;;;;;74.25;8.05;;;;;;;;;;4994994;28;20534;-36
2022/04/05 14:18:43;;;;;;;27.48;3.53;;;;;;;;;;5012763;28;20033;-37
2022/04/05 14:21:11;;;;;;;46.25;4.28;;;;;;;;;;5012696;28;20054;-37
2022/04/05 14:23:39;;;;;;;227.75;20.98;;;;;;;;;;5012652;28;20057;-36
2022/04/05 14:26:07;;;;;;;76.55;7.80;;;;;;;;;;5011883;28;20033;-36
2022/04/05 14:28:34;;;;;;;307.48;24.55;;;;;;;;;;5012480;28;20025;-36
2022/04/05 14:31:01;;;;;;;116.65;12.25;;;;;;;;;;5012393;28;20125;-36
2022/04/05 14:33:28;;;;;;;91.53;11.52;;;;;;;;;;5030698;28;20049;-36
2022/04/05 14:35:55;;;;;;;31.05;4.40;;;;;;;;;;5032230;28;20116;-36
2022/04/05 14:38:22;;;;;;;175.35;18.23;;;;;;;;;;5032001;28;20025;-37